createdAt,value
2023-05-23T00:00:10.470Z,15.13
2023-05-23T00:01:10.415Z,15.09
2023-05-23T00:02:10.468Z,15.11
2023-05-23T00:03:10.566Z,15.11
2023-05-23T00:04:10.469Z,15.11
2023-05-23T00:05:10.373Z,15.09
2023-05-23T00:06:10.351Z,15.06
2023-05-23T00:07:10.352Z,15.03
2023-05-23T00:08:10.351Z,15.03
2023-05-23T00:09:10.343Z,15.01
2023-05-23T00:10:10.317Z,14.95
2023-05-23T00:11:09.784Z,14.93
2023-05-23T00:12:10.344Z,14.88
2023-05-23T00:13:10.304Z,14.86
2023-05-23T00:14:10.311Z,14.81
2023-05-23T00:15:10.310Z,14.78
2023-05-23T00:16:10.219Z,14.75
2023-05-23T00:17:10.237Z,14.74
2023-05-23T00:18:10.209Z,14.71
2023-05-23T00:19:10.221Z,14.69
2023-05-23T00:20:10.182Z,14.71
2023-05-23T00:21:10.152Z,14.68
2023-05-23T00:22:10.128Z,14.65
2023-05-23T00:23:10.124Z,14.64
2023-05-23T00:24:10.123Z,14.62
2023-05-23T00:25:10.096Z,14.61
2023-05-23T00:26:10.094Z,14.57
2023-05-23T00:27:10.082Z,14.53
2023-05-23T00:28:10.065Z,14.50
2023-05-23T00:29:10.039Z,14.49
2023-05-23T00:30:10.032Z,14.50
2023-05-23T00:31:10.057Z,14.50
2023-05-23T00:32:10.020Z,14.50
2023-05-23T00:33:09.980Z,14.53
2023-05-23T00:34:09.972Z,14.50
2023-05-23T00:35:09.955Z,14.50
2023-05-23T00:36:09.933Z,14.46
2023-05-23T00:37:09.930Z,14.47
2023-05-23T00:38:09.922Z,14.46
2023-05-23T00:39:09.899Z,14.43
2023-05-23T00:40:09.895Z,14.44
2023-05-23T00:41:09.869Z,14.38
2023-05-23T00:42:09.870Z,14.35
2023-05-23T00:43:09.854Z,14.37
2023-05-23T00:44:09.830Z,14.37
2023-05-23T00:45:09.353Z,14.39
2023-05-23T00:46:09.858Z,14.37
2023-05-23T00:47:09.828Z,14.34
2023-05-23T00:48:09.786Z,14.25
2023-05-23T00:49:09.766Z,14.29
2023-05-23T00:50:09.763Z,14.32
2023-05-23T00:51:09.770Z,14.32
2023-05-23T00:52:09.721Z,14.32
2023-05-23T00:53:09.725Z,14.32
2023-05-23T00:54:09.697Z,14.32
2023-05-23T00:55:09.679Z,14.31
2023-05-23T00:56:09.683Z,14.29
2023-05-23T00:57:09.652Z,14.29
2023-05-23T00:58:09.635Z,14.28
2023-05-23T00:59:09.627Z,14.27
2023-05-23T01:00:09.605Z,14.24
2023-05-23T01:01:09.619Z,14.25
2023-05-23T01:02:09.625Z,14.20
2023-05-23T01:03:09.676Z,14.17
2023-05-23T01:04:09.683Z,14.13
2023-05-23T01:05:09.556Z,14.12
2023-05-23T01:06:09.528Z,14.10
2023-05-23T01:07:09.512Z,14.09
2023-05-23T01:08:09.502Z,14.06
2023-05-23T01:09:09.498Z,14.01
2023-05-23T01:10:09.478Z,13.99
2023-05-23T01:11:09.453Z,14.01
2023-05-23T01:12:09.446Z,14.02
2023-05-23T01:13:09.425Z,14.06
2023-05-23T01:14:09.430Z,14.02
2023-05-23T01:15:09.417Z,14.02
2023-05-23T01:16:09.409Z,13.99
2023-05-23T01:17:08.811Z,13.96
2023-05-23T01:18:09.386Z,13.94
2023-05-23T01:19:09.398Z,13.91
2023-05-23T01:20:09.337Z,13.92
2023-05-23T01:21:09.320Z,13.91
2023-05-23T01:22:09.302Z,13.89
2023-05-23T01:23:09.337Z,13.88
2023-05-23T01:24:09.283Z,13.84
2023-05-23T01:25:09.260Z,13.84
2023-05-23T01:26:09.261Z,13.83
2023-05-23T01:27:09.243Z,13.80
2023-05-23T01:28:09.235Z,13.79
2023-05-23T01:29:09.219Z,13.79
2023-05-23T01:30:09.183Z,13.80
2023-05-23T01:31:09.187Z,13.79
2023-05-23T01:32:09.299Z,13.79
2023-05-23T01:33:09.288Z,13.77
2023-05-23T01:34:09.128Z,13.77
2023-05-23T01:35:09.110Z,13.77
2023-05-23T01:36:09.116Z,13.77
2023-05-23T01:37:09.098Z,13.76
2023-05-23T01:38:09.100Z,13.76
2023-05-23T01:39:09.061Z,13.76
2023-05-23T01:40:09.044Z,13.79
2023-05-23T01:41:09.040Z,13.83
2023-05-23T01:42:09.044Z,13.84
2023-05-23T01:43:09.020Z,13.84
2023-05-23T01:44:09.019Z,13.84
2023-05-23T01:45:08.975Z,13.87
2023-05-23T01:46:09.014Z,13.87
2023-05-23T01:47:08.970Z,13.87
2023-05-23T01:48:08.980Z,13.84
2023-05-23T01:49:08.927Z,13.87
2023-05-23T01:50:08.907Z,13.87
2023-05-23T01:51:08.896Z,13.83
2023-05-23T01:52:08.906Z,13.81
2023-05-23T01:53:08.881Z,13.79
2023-05-23T01:54:08.864Z,13.80
2023-05-23T01:55:08.877Z,13.80
2023-05-23T01:56:08.820Z,13.79
2023-05-23T01:57:08.816Z,13.77
2023-05-23T01:58:08.809Z,13.76
2023-05-23T01:59:08.790Z,13.70
2023-05-23T02:00:08.801Z,13.67
2023-05-23T02:01:08.850Z,13.59
2023-05-23T02:02:08.788Z,13.51
2023-05-23T02:03:08.804Z,13.46
2023-05-23T02:04:08.725Z,13.46
2023-05-23T02:05:08.732Z,13.47
2023-05-23T02:06:08.709Z,13.51
2023-05-23T02:07:08.729Z,13.49
2023-05-23T02:08:08.698Z,13.47
2023-05-23T02:09:08.649Z,13.46
2023-05-23T02:10:08.647Z,13.46
2023-05-23T02:11:08.641Z,13.44
2023-05-23T02:12:08.617Z,13.41
2023-05-23T02:13:08.603Z,13.40
2023-05-23T02:14:08.584Z,13.36
2023-05-23T02:15:08.611Z,13.32
2023-05-23T02:16:08.582Z,13.27
2023-05-23T02:17:08.601Z,13.25
2023-05-23T02:18:08.631Z,13.24
2023-05-23T02:19:08.698Z,13.22
2023-05-23T02:20:08.539Z,13.24
2023-05-23T02:21:08.506Z,13.22
2023-05-23T02:22:08.489Z,13.22
2023-05-23T02:23:08.490Z,13.25
2023-05-23T02:24:08.468Z,13.25
2023-05-23T02:25:08.461Z,13.27
2023-05-23T02:26:08.433Z,13.30
2023-05-23T02:27:08.428Z,13.37
2023-05-23T02:28:08.410Z,13.43
2023-05-23T02:29:08.412Z,13.51
2023-05-23T02:30:07.913Z,13.54
2023-05-23T02:31:08.437Z,13.55
2023-05-23T02:32:08.390Z,13.58
2023-05-23T02:33:08.405Z,13.61
2023-05-23T02:34:08.337Z,13.62
2023-05-23T02:35:08.338Z,13.62
2023-05-23T02:36:08.281Z,13.62
2023-05-23T02:37:08.281Z,13.62
2023-05-23T02:38:08.280Z,13.63
2023-05-23T02:39:08.284Z,13.67
2023-05-23T02:40:08.240Z,13.65
2023-05-23T02:41:08.226Z,13.65
2023-05-23T02:42:08.226Z,13.63
2023-05-23T02:43:08.193Z,13.62
2023-05-23T02:44:08.203Z,13.55
2023-05-23T02:45:08.159Z,13.59
2023-05-23T02:46:08.177Z,13.54
2023-05-23T02:47:08.149Z,13.51
2023-05-23T02:48:08.318Z,13.51
2023-05-23T02:49:08.121Z,13.51
2023-05-23T02:50:08.105Z,13.51
2023-05-23T02:51:08.089Z,13.47
2023-05-23T02:52:08.070Z,13.46
2023-05-23T02:53:08.096Z,13.44
2023-05-23T02:54:08.048Z,13.41
2023-05-23T02:55:08.050Z,13.40
2023-05-23T02:56:08.021Z,13.36
2023-05-23T02:57:08.008Z,13.30
2023-05-23T02:58:07.995Z,13.29
2023-05-23T02:59:07.977Z,13.27
2023-05-23T03:00:07.958Z,13.24
2023-05-23T03:01:08.291Z,13.22
2023-05-23T03:02:08.094Z,13.24
2023-05-23T03:03:08.024Z,13.21
2023-05-23T03:04:07.963Z,13.20
2023-05-23T03:05:07.972Z,13.21
2023-05-23T03:06:07.950Z,13.20
2023-05-23T03:07:11.643Z,13.17
2023-05-23T03:08:08.909Z,13.17
2023-05-23T03:09:06.081Z,13.18
2023-05-23T03:10:06.085Z,13.14
2023-05-23T03:11:06.021Z,13.12
2023-05-23T03:12:06.024Z,13.11
2023-05-23T03:13:06.109Z,13.11
2023-05-23T03:14:06.111Z,13.11
2023-05-23T03:15:07.434Z,13.09
2023-05-23T03:16:06.037Z,13.03
2023-05-23T03:17:05.933Z,13.02
2023-05-23T03:18:05.997Z,12.99
2023-05-23T03:19:05.997Z,12.97
2023-05-23T03:20:07.896Z,12.95
2023-05-23T03:21:05.895Z,12.96
2023-05-23T03:22:07.831Z,12.95
2023-05-23T03:23:07.823Z,12.93
2023-05-23T03:24:07.791Z,12.95
2023-05-23T03:25:05.924Z,12.95
2023-05-23T03:26:05.819Z,12.97
2023-05-23T03:27:05.987Z,12.97
2023-05-23T03:28:07.242Z,12.96
2023-05-23T03:29:06.004Z,12.93
2023-05-23T03:30:07.793Z,12.88
2023-05-23T03:31:07.217Z,12.87
2023-05-23T03:32:07.779Z,12.84
2023-05-23T03:33:05.799Z,12.82
2023-05-23T03:34:07.164Z,12.81
2023-05-23T03:35:07.159Z,12.79
2023-05-23T03:36:07.121Z,12.84
2023-05-23T03:37:07.138Z,12.87
2023-05-23T03:38:07.125Z,12.85
2023-05-23T03:39:05.862Z,12.84
2023-05-23T03:40:07.082Z,12.84
2023-05-23T03:41:05.622Z,12.84
2023-05-23T03:42:07.049Z,12.79
2023-05-23T03:43:07.072Z,12.79
2023-05-23T03:44:05.625Z,12.84
2023-05-23T03:45:07.013Z,12.84
2023-05-23T03:46:05.618Z,12.85
2023-05-23T03:47:05.544Z,12.87
2023-05-23T03:48:07.531Z,12.87
2023-05-23T03:49:05.635Z,12.89
2023-05-23T03:50:05.620Z,12.92
2023-05-23T03:51:05.645Z,12.89
2023-05-23T03:52:05.553Z,12.87
2023-05-23T03:53:06.915Z,12.84
2023-05-23T03:54:05.568Z,12.81
2023-05-23T03:55:05.605Z,12.78
2023-05-23T03:56:07.365Z,12.77
2023-05-23T03:57:05.580Z,12.77
2023-05-23T03:58:06.837Z,12.74
2023-05-23T03:59:06.821Z,12.71
2023-05-23T04:00:05.372Z,12.69
2023-05-23T04:01:06.778Z,12.67
2023-05-23T04:02:05.354Z,12.64
2023-05-23T04:03:05.564Z,12.63
2023-05-23T04:04:07.303Z,12.63
2023-05-23T04:05:05.403Z,12.64
2023-05-23T04:06:07.214Z,12.64
2023-05-23T04:07:05.252Z,12.67
2023-05-23T04:08:05.388Z,12.71
2023-05-23T04:09:06.695Z,12.77
2023-05-23T04:10:05.273Z,12.78
2023-05-23T04:11:05.346Z,12.82
2023-05-23T04:12:06.653Z,12.85
2023-05-23T04:13:05.402Z,12.87
2023-05-23T04:14:06.604Z,12.87
2023-05-23T04:15:06.612Z,12.87
2023-05-23T04:16:05.426Z,12.88
2023-05-23T04:17:06.598Z,12.92
2023-05-23T04:18:05.249Z,12.93
2023-05-23T04:19:06.650Z,12.97
2023-05-23T04:20:06.590Z,12.97
2023-05-23T04:21:05.158Z,12.97
2023-05-23T04:22:06.885Z,13.00
2023-05-23T04:23:06.862Z,13.02
2023-05-23T04:24:06.860Z,13.03
2023-05-23T04:25:06.894Z,13.06
2023-05-23T04:26:06.795Z,13.06
2023-05-23T04:27:06.801Z,13.12
2023-05-23T04:28:06.780Z,13.12
2023-05-23T04:29:06.848Z,13.18
2023-05-23T04:30:06.758Z,13.20
2023-05-23T04:31:06.814Z,13.22
2023-05-23T04:32:06.733Z,13.25
2023-05-23T04:33:06.742Z,13.25
2023-05-23T04:34:06.705Z,13.29
2023-05-23T04:35:06.680Z,13.29
2023-05-23T04:36:06.685Z,13.32
2023-05-23T04:37:06.667Z,13.32
2023-05-23T04:38:06.657Z,13.30
2023-05-23T04:39:06.634Z,13.30
2023-05-23T04:40:06.640Z,13.33
2023-05-23T04:41:06.664Z,13.37
2023-05-23T04:42:06.596Z,13.40
2023-05-23T04:43:06.584Z,13.44
2023-05-23T04:44:06.606Z,13.41
2023-05-23T04:45:06.541Z,13.40
2023-05-23T04:46:06.542Z,13.33
2023-05-23T04:47:06.591Z,13.36
2023-05-23T04:48:06.595Z,13.38
2023-05-23T04:49:06.033Z,13.41
2023-05-23T04:50:06.518Z,13.49
2023-05-23T04:51:06.480Z,13.56
2023-05-23T04:52:06.456Z,13.63
2023-05-23T04:53:06.429Z,13.69
2023-05-23T04:54:06.453Z,13.74
2023-05-23T04:55:05.929Z,13.83
2023-05-23T04:56:06.399Z,13.89
2023-05-23T04:57:06.399Z,13.95
2023-05-23T04:58:06.368Z,14.04
2023-05-23T04:59:06.362Z,14.10
2023-05-23T05:00:06.357Z,14.16
2023-05-23T05:01:06.382Z,14.20
2023-05-23T05:02:06.300Z,14.20
2023-05-23T05:03:06.348Z,14.24
2023-05-23T05:04:06.301Z,14.34
2023-05-23T05:05:06.276Z,14.43
2023-05-23T05:06:06.239Z,14.54
2023-05-23T05:07:06.248Z,14.62
2023-05-23T05:08:06.228Z,14.74
2023-05-23T05:09:06.210Z,14.88
2023-05-23T05:10:06.221Z,15.03
2023-05-23T05:11:06.182Z,15.17
2023-05-23T05:12:06.179Z,15.28
2023-05-23T05:13:06.162Z,15.30
2023-05-23T05:14:06.157Z,15.31
2023-05-23T05:15:06.134Z,15.23
2023-05-23T05:16:06.117Z,15.23
2023-05-23T05:17:06.148Z,15.24
2023-05-23T05:18:06.108Z,15.26
2023-05-23T05:19:06.126Z,15.24
2023-05-23T05:20:06.073Z,15.15
2023-05-23T05:21:06.047Z,15.09
2023-05-23T05:22:06.029Z,15.08
2023-05-23T05:23:06.003Z,15.06
2023-05-23T05:24:06.008Z,15.09
2023-05-23T05:25:05.993Z,15.12
2023-05-23T05:26:05.964Z,15.13
2023-05-23T05:27:05.952Z,15.19
2023-05-23T05:28:05.993Z,15.23
2023-05-23T05:29:06.008Z,15.30
2023-05-23T05:30:05.927Z,15.30
2023-05-23T05:31:05.944Z,15.35
2023-05-23T05:32:05.879Z,15.41
2023-05-23T05:33:05.899Z,15.45
2023-05-23T05:34:05.401Z,15.48
2023-05-23T05:35:05.871Z,15.56
2023-05-23T05:36:05.996Z,15.64
2023-05-23T05:37:05.836Z,15.68
2023-05-23T05:38:05.832Z,15.78
2023-05-23T05:39:05.817Z,15.85
2023-05-23T05:40:05.805Z,15.86
2023-05-23T05:41:08.033Z,15.92
2023-05-23T05:42:05.762Z,15.88
2023-05-23T05:43:05.750Z,15.84
2023-05-23T05:44:05.748Z,15.75
2023-05-23T05:45:05.813Z,15.67
2023-05-23T05:46:05.767Z,15.67
2023-05-23T05:47:05.702Z,15.72
2023-05-23T05:48:05.777Z,15.75
2023-05-23T05:49:05.694Z,15.76
2023-05-23T05:50:05.647Z,15.79
2023-05-23T05:51:05.645Z,15.86
2023-05-23T05:52:05.640Z,15.89
2023-05-23T05:53:05.627Z,15.92
2023-05-23T05:54:05.600Z,15.99
2023-05-23T05:55:05.567Z,16.01
2023-05-23T05:56:05.582Z,16.06
2023-05-23T05:57:05.578Z,16.06
2023-05-23T05:58:05.539Z,16.07
2023-05-23T05:59:05.533Z,16.12
2023-05-23T06:00:05.518Z,16.12
2023-05-23T06:01:05.520Z,16.18
2023-05-23T06:02:05.513Z,16.23
2023-05-23T06:03:05.581Z,16.31
2023-05-23T06:04:05.594Z,16.38
2023-05-23T06:05:05.477Z,16.42
2023-05-23T06:06:05.446Z,16.55
2023-05-23T06:07:05.417Z,16.55
2023-05-23T06:08:05.416Z,16.55
2023-05-23T06:09:05.397Z,16.58
2023-05-23T06:10:05.396Z,16.59
2023-05-23T06:11:05.376Z,16.75
2023-05-23T06:12:05.347Z,16.93
2023-05-23T06:13:05.335Z,17.13
2023-05-23T06:14:05.314Z,17.33
2023-05-23T06:15:05.328Z,17.48
2023-05-23T06:16:05.349Z,17.53
2023-05-23T06:17:04.788Z,17.55
2023-05-23T06:18:05.358Z,17.69
2023-05-23T06:19:05.283Z,17.71
2023-05-23T06:20:05.256Z,17.82
2023-05-23T06:21:05.228Z,17.89
2023-05-23T06:22:05.211Z,18.58
2023-05-23T06:23:05.203Z,18.55
2023-05-23T06:24:05.191Z,18.82
2023-05-23T06:25:05.191Z,18.90
2023-05-23T06:26:05.158Z,18.80
2023-05-23T06:27:05.142Z,18.67
2023-05-23T06:28:05.159Z,18.68
2023-05-23T06:29:05.113Z,18.65
2023-05-23T06:30:05.121Z,18.58
2023-05-23T06:31:05.110Z,18.54
2023-05-23T06:32:05.142Z,18.49
2023-05-23T06:33:05.166Z,18.52
2023-05-23T06:34:05.050Z,18.21
2023-05-23T06:35:04.551Z,18.19
2023-05-23T06:36:05.023Z,18.13
2023-05-23T06:37:05.012Z,18.02
2023-05-23T06:38:05.002Z,18.07
2023-05-23T06:39:04.991Z,18.10
2023-05-23T06:40:04.979Z,18.06
2023-05-23T06:41:04.956Z,17.99
2023-05-23T06:42:04.962Z,18.04
2023-05-23T06:43:04.919Z,18.10
2023-05-23T06:44:04.910Z,18.21
2023-05-23T06:45:04.894Z,18.24
2023-05-23T06:46:04.975Z,18.24
2023-05-23T06:47:04.863Z,18.28
2023-05-23T06:48:04.947Z,18.28
2023-05-23T06:49:14.271Z,18.12
2023-05-23T06:50:05.864Z,18.09
2023-05-23T06:51:04.817Z,18.12
2023-05-23T06:52:04.798Z,18.12
2023-05-23T06:53:04.790Z,18.02
2023-05-23T06:54:04.785Z,18.02
2023-05-23T06:55:04.769Z,18.00
2023-05-23T06:56:04.753Z,18.03
2023-05-23T06:57:04.731Z,18.04
2023-05-23T06:58:04.557Z,18.12
2023-05-23T06:59:04.704Z,18.18
2023-05-23T07:00:04.682Z,18.19
2023-05-23T07:01:04.705Z,18.04
2023-05-23T07:02:04.664Z,17.94
2023-05-23T07:03:04.762Z,17.91
2023-05-23T07:04:04.632Z,17.94
2023-05-23T07:05:04.658Z,17.82
2023-05-23T07:06:04.604Z,17.88
2023-05-23T07:07:04.617Z,17.88
2023-05-23T07:08:04.590Z,17.81
2023-05-23T07:09:04.581Z,17.69
2023-05-23T07:10:04.541Z,17.50
2023-05-23T07:11:04.546Z,17.46
2023-05-23T07:12:04.541Z,17.47
2023-05-23T07:13:04.502Z,17.51
2023-05-23T07:14:04.520Z,17.53
2023-05-23T07:15:04.477Z,17.48
2023-05-23T07:16:04.470Z,17.43
2023-05-23T07:17:04.508Z,17.38
2023-05-23T07:18:04.553Z,17.36
2023-05-23T07:19:04.446Z,17.36
2023-05-23T07:20:04.409Z,17.36
2023-05-23T07:21:04.410Z,17.38
2023-05-23T07:22:04.423Z,17.50
2023-05-23T07:23:04.367Z,17.44
2023-05-23T07:24:04.349Z,17.62
2023-05-23T07:25:04.330Z,17.74
2023-05-23T07:26:04.333Z,17.67
2023-05-23T07:27:04.314Z,17.64
2023-05-23T07:28:04.300Z,17.67
2023-05-23T07:29:04.284Z,17.71
2023-05-23T07:30:04.265Z,17.78
2023-05-23T07:31:04.347Z,17.85
2023-05-23T07:32:04.256Z,17.89
2023-05-23T07:33:04.281Z,17.91
2023-05-23T07:34:04.225Z,17.73
2023-05-23T07:35:04.205Z,17.59
2023-05-23T07:36:04.210Z,17.64
2023-05-23T07:37:04.182Z,17.50
2023-05-23T07:38:04.300Z,17.44
2023-05-23T07:39:04.149Z,17.40
2023-05-23T07:40:04.143Z,17.35
2023-05-23T07:41:11.661Z,17.20
2023-05-23T07:42:05.096Z,17.18
2023-05-23T07:43:04.087Z,17.06
2023-05-23T07:44:04.113Z,17.08
2023-05-23T07:45:04.092Z,17.11
2023-05-23T07:46:04.076Z,17.22
2023-05-23T07:47:04.090Z,17.26
2023-05-23T07:48:04.049Z,17.32
2023-05-23T07:49:03.990Z,17.30
2023-05-23T07:50:04.003Z,17.44
2023-05-23T07:51:04.035Z,17.46
2023-05-23T07:52:03.959Z,17.41
2023-05-23T07:53:03.973Z,17.28
2023-05-23T07:54:03.934Z,17.22
2023-05-23T07:55:03.939Z,17.18
2023-05-23T07:56:03.913Z,17.17
2023-05-23T07:57:03.897Z,17.25
2023-05-23T07:58:03.868Z,17.22
2023-05-23T07:59:03.873Z,17.28
2023-05-23T08:00:03.854Z,17.35
2023-05-23T08:01:03.837Z,17.33
2023-05-23T08:02:03.836Z,17.36
2023-05-23T08:03:03.872Z,17.38
2023-05-23T08:04:03.944Z,17.32
2023-05-23T08:05:03.789Z,17.32
2023-05-23T08:06:03.775Z,17.35
2023-05-23T08:07:05.830Z,17.51
2023-05-23T08:08:03.744Z,17.48
2023-05-23T08:09:03.753Z,17.53
2023-05-23T08:10:03.259Z,17.55
2023-05-23T08:11:03.798Z,17.64
2023-05-23T08:12:03.685Z,17.66
2023-05-23T08:13:06.049Z,17.66
2023-05-23T08:14:03.697Z,17.67
2023-05-23T08:15:03.677Z,17.69
2023-05-23T08:16:04.370Z,17.66
2023-05-23T08:17:03.721Z,17.82
2023-05-23T08:18:03.758Z,17.95
2023-05-23T08:19:03.231Z,17.95
2023-05-23T08:20:03.580Z,17.91
2023-05-23T08:21:03.170Z,18.02
2023-05-23T08:22:01.666Z,17.94
2023-05-23T08:23:03.555Z,17.97
2023-05-23T08:24:03.554Z,18.12
2023-05-23T08:25:03.518Z,18.22
2023-05-23T08:26:03.494Z,18.27
2023-05-23T08:27:03.497Z,18.36
2023-05-23T08:28:03.536Z,18.61
2023-05-23T08:29:03.456Z,18.86
2023-05-23T08:30:03.462Z,19.08
2023-05-23T08:31:03.434Z,19.28
2023-05-23T08:32:03.463Z,19.57
2023-05-23T08:33:03.540Z,19.65
2023-05-23T08:34:03.420Z,19.46
2023-05-23T08:35:03.402Z,19.43
2023-05-23T08:36:03.372Z,19.24
2023-05-23T08:37:03.365Z,19.14
2023-05-23T08:38:03.334Z,18.98
2023-05-23T08:39:03.322Z,18.98
2023-05-23T08:40:03.319Z,19.01
2023-05-23T08:41:03.302Z,18.77
2023-05-23T08:42:03.326Z,18.64
2023-05-23T08:43:03.320Z,18.68
2023-05-23T08:44:03.239Z,18.61
2023-05-23T08:45:03.242Z,18.73
2023-05-23T08:46:03.260Z,18.86
2023-05-23T08:47:03.208Z,18.97
2023-05-23T08:48:03.208Z,19.06
2023-05-23T08:49:02.734Z,19.20
2023-05-23T08:50:03.161Z,19.10
2023-05-23T08:51:03.172Z,19.13
2023-05-23T08:52:03.128Z,19.08
2023-05-23T08:53:03.173Z,19.38
2023-05-23T08:54:03.115Z,19.38
2023-05-23T08:55:03.089Z,19.43
2023-05-23T08:56:03.107Z,19.43
2023-05-23T08:57:03.066Z,19.51
2023-05-23T08:58:03.045Z,19.48
2023-05-23T08:59:03.067Z,19.25
2023-05-23T09:00:04.241Z,19.35
2023-05-23T09:01:03.024Z,19.33
2023-05-23T09:02:03.046Z,19.17
2023-05-23T09:03:03.044Z,19.17
2023-05-23T09:04:03.000Z,19.10
2023-05-23T09:05:03.011Z,19.15
2023-05-23T09:06:02.979Z,19.18
2023-05-23T09:07:02.953Z,19.08
2023-05-23T09:08:01.044Z,19.06
2023-05-23T09:09:02.910Z,19.13
2023-05-23T09:10:02.911Z,19.25
2023-05-23T09:11:02.921Z,19.28
2023-05-23T09:12:02.872Z,19.32
2023-05-23T09:13:02.862Z,20.43
2023-05-23T09:14:02.849Z,21.83
2023-05-23T09:15:01.885Z,22.96
2023-05-23T09:16:02.864Z,23.92
2023-05-23T09:17:04.561Z,24.67
2023-05-23T09:18:02.844Z,24.02
2023-05-23T09:19:02.782Z,23.26
2023-05-23T09:20:02.778Z,22.78
2023-05-23T09:21:02.739Z,22.38
2023-05-23T09:22:02.806Z,22.34
2023-05-23T09:23:03.797Z,22.56
2023-05-23T09:24:02.714Z,23.38
2023-05-23T09:25:02.722Z,23.24
2023-05-23T09:26:02.688Z,23.12
2023-05-23T09:27:02.661Z,22.74
2023-05-23T09:28:02.670Z,22.69
2023-05-23T09:29:02.645Z,22.65
2023-05-23T09:30:02.613Z,22.68
2023-05-23T09:31:02.605Z,22.47
2023-05-23T09:32:02.636Z,22.47
2023-05-23T09:33:05.528Z,22.52
2023-05-23T09:34:02.708Z,22.37
2023-05-23T09:35:02.643Z,22.10
2023-05-23T09:36:02.554Z,22.01
2023-05-23T09:37:02.531Z,21.74
2023-05-23T09:38:02.537Z,21.75
2023-05-23T09:39:03.282Z,21.20
2023-05-23T09:40:02.534Z,21.16
2023-05-23T09:41:02.483Z,21.05
2023-05-23T09:42:02.495Z,20.83
2023-05-23T09:43:02.467Z,20.77
2023-05-23T09:44:02.448Z,20.76
2023-05-23T09:45:04.134Z,20.68
2023-05-23T09:46:02.405Z,20.43
2023-05-23T09:47:02.438Z,20.46
2023-05-23T09:48:02.455Z,20.43
2023-05-23T09:49:02.417Z,20.34
2023-05-23T09:50:02.351Z,20.53
2023-05-23T09:51:03.576Z,20.53
2023-05-23T09:52:02.341Z,20.58
2023-05-23T09:53:02.363Z,20.49
2023-05-23T09:54:02.306Z,20.47
2023-05-23T09:55:02.276Z,20.47
2023-05-23T09:56:02.261Z,20.39
2023-05-23T09:57:02.328Z,20.43
2023-05-23T09:58:02.255Z,20.53
2023-05-23T09:59:02.254Z,20.61
2023-05-23T10:00:02.278Z,20.66
2023-05-23T10:01:02.260Z,20.61
2023-05-23T10:02:02.209Z,20.43
2023-05-23T10:03:02.173Z,20.20
2023-05-23T10:04:02.188Z,20.15
2023-05-23T10:05:02.150Z,20.13
2023-05-23T10:06:02.158Z,20.06
2023-05-23T10:07:02.147Z,19.93
2023-05-23T10:08:02.105Z,19.87
2023-05-23T10:09:02.095Z,19.78
2023-05-23T10:10:02.084Z,19.70
2023-05-23T10:11:02.077Z,19.73
2023-05-23T10:12:02.056Z,19.69
2023-05-23T10:13:02.043Z,19.60
2023-05-23T10:14:02.017Z,19.58
2023-05-23T10:15:02.009Z,19.58
2023-05-23T10:16:02.003Z,19.58
2023-05-23T10:17:02.035Z,19.61
2023-05-23T10:18:01.999Z,19.61
2023-05-23T10:19:01.998Z,19.58
2023-05-23T10:20:01.953Z,19.57
2023-05-23T10:21:01.936Z,19.58
2023-05-23T10:22:01.925Z,19.63
2023-05-23T10:23:01.906Z,19.66
2023-05-23T10:24:02.451Z,19.65
2023-05-23T10:25:01.903Z,19.70
2023-05-23T10:26:01.848Z,19.65
2023-05-23T10:27:01.838Z,19.60
2023-05-23T10:28:04.144Z,19.60
2023-05-23T10:29:01.827Z,19.63
2023-05-23T10:30:01.846Z,19.63
2023-05-23T10:31:01.803Z,19.50
2023-05-23T10:32:01.769Z,19.47
2023-05-23T10:33:01.826Z,19.51
2023-05-23T10:34:01.754Z,19.60
2023-05-23T10:35:01.742Z,19.61
2023-05-23T10:36:01.737Z,19.63
2023-05-23T10:37:01.684Z,19.66
2023-05-23T10:38:01.679Z,19.66
2023-05-23T10:39:01.682Z,19.78
2023-05-23T10:40:01.712Z,19.88
2023-05-23T10:41:01.645Z,19.98
2023-05-23T10:42:01.619Z,19.93
2023-05-23T10:43:01.614Z,19.94
2023-05-23T10:44:01.621Z,19.95
2023-05-23T10:45:01.618Z,19.72
2023-05-23T10:46:01.665Z,19.84
2023-05-23T10:47:01.622Z,19.87
2023-05-23T10:48:01.585Z,19.75
2023-05-23T10:49:01.548Z,19.83
2023-05-23T10:50:01.509Z,19.73
2023-05-23T10:51:01.490Z,19.90
2023-05-23T10:52:01.473Z,19.91
2023-05-23T10:53:01.502Z,20.05
2023-05-23T10:54:01.452Z,20.10
2023-05-23T10:55:01.439Z,20.23
2023-05-23T10:56:01.432Z,20.33
2023-05-23T10:57:01.450Z,20.38
2023-05-23T10:58:01.426Z,20.25
2023-05-23T10:59:01.385Z,20.31
2023-05-23T11:00:01.369Z,20.41
2023-05-23T11:01:01.348Z,20.62
2023-05-23T11:03:01.393Z,20.69
2023-05-23T11:04:01.395Z,20.47
2023-05-23T11:05:01.305Z,20.42
2023-05-23T11:06:01.288Z,20.46
2023-05-23T11:07:01.305Z,20.47
2023-05-23T11:08:01.262Z,20.47
2023-05-23T11:09:01.261Z,20.35
2023-05-23T11:10:01.236Z,20.34
2023-05-23T11:11:01.247Z,20.49
2023-05-23T11:12:01.235Z,20.38
2023-05-23T11:13:01.205Z,20.34
2023-05-23T11:14:01.177Z,20.30
2023-05-23T11:15:01.174Z,20.24
2023-05-23T11:16:01.234Z,20.24
2023-05-23T11:17:01.154Z,20.16
2023-05-23T11:18:01.176Z,20.28
2023-05-23T11:19:01.153Z,20.42
2023-05-23T11:20:01.102Z,20.53
2023-05-23T11:21:01.102Z,20.50
2023-05-23T11:22:01.097Z,20.74
2023-05-23T11:23:01.058Z,20.72
2023-05-23T11:24:01.060Z,20.74
2023-05-23T11:25:01.110Z,20.76
2023-05-23T11:26:01.031Z,20.87
2023-05-23T11:27:01.018Z,20.98
2023-05-23T11:28:00.994Z,21.04
2023-05-23T11:29:01.012Z,21.06
2023-05-23T11:30:00.985Z,21.21
2023-05-23T11:31:00.954Z,21.21
2023-05-23T11:32:00.979Z,21.26
2023-05-23T11:33:01.001Z,21.29
2023-05-23T11:34:00.925Z,21.36
2023-05-23T11:35:00.910Z,21.16
2023-05-23T11:36:00.896Z,21.04
2023-05-23T11:37:00.868Z,20.68
2023-05-23T11:38:00.865Z,20.79
2023-05-23T11:39:00.839Z,20.93
2023-05-23T11:40:00.867Z,21.02
2023-05-23T11:41:00.827Z,21.04
2023-05-23T11:42:00.822Z,21.05
2023-05-23T11:43:00.806Z,20.93
2023-05-23T11:44:00.785Z,20.72
2023-05-23T11:45:00.786Z,20.62
2023-05-23T11:46:00.805Z,20.66
2023-05-23T11:47:00.764Z,20.64
2023-05-23T11:48:00.780Z,20.69
2023-05-23T11:49:00.741Z,20.77
2023-05-23T11:50:00.709Z,20.64
2023-05-23T11:51:00.693Z,20.83
2023-05-23T11:52:00.684Z,20.98
2023-05-23T11:53:00.651Z,21.09
2023-05-23T11:54:00.651Z,21.11
2023-05-23T11:56:00.781Z,21.13
2023-05-23T11:57:00.594Z,21.26
2023-05-23T11:58:00.589Z,21.30
2023-05-23T11:59:00.584Z,21.23
2023-05-23T12:00:00.591Z,21.17
2023-05-23T12:01:00.545Z,21.32
2023-05-23T12:02:00.545Z,21.35
2023-05-23T12:03:00.602Z,21.20
2023-05-23T12:04:00.649Z,21.11
2023-05-23T12:05:00.561Z,21.01
2023-05-23T12:06:00.473Z,20.90
2023-05-23T12:07:00.490Z,21.05
2023-05-23T12:08:00.469Z,21.17
2023-05-23T12:09:00.435Z,21.20
2023-05-23T12:10:00.414Z,21.19
2023-05-23T12:11:00.401Z,21.23
2023-05-23T12:12:00.385Z,21.19
2023-05-23T12:13:00.389Z,21.24
2023-05-23T12:14:00.376Z,21.30
2023-05-23T12:15:00.361Z,21.30
2023-05-23T12:16:00.487Z,21.36
2023-05-23T12:17:00.326Z,21.38
2023-05-23T12:18:00.364Z,21.36
2023-05-23T12:19:00.292Z,21.30
2023-05-23T12:20:00.316Z,21.26
2023-05-23T12:21:00.259Z,21.30
2023-05-23T12:22:00.272Z,21.26
2023-05-23T12:23:00.235Z,21.35
2023-05-23T12:24:00.226Z,21.24
2023-05-23T12:25:00.249Z,21.13
2023-05-23T12:26:00.199Z,21.16
2023-05-23T12:27:00.224Z,21.02
2023-05-23T12:28:00.179Z,20.68
2023-05-23T12:29:00.205Z,20.46
2023-05-23T12:30:00.199Z,20.59
2023-05-23T12:31:00.185Z,20.66
2023-05-23T12:32:00.147Z,20.41
2023-05-23T12:33:00.135Z,20.38
2023-05-23T12:34:00.135Z,20.28
2023-05-23T12:35:00.096Z,20.06
2023-05-23T12:36:00.104Z,20.16
2023-05-23T12:37:14.925Z,20.30
2023-05-23T12:38:01.040Z,20.49
2023-05-23T12:39:00.053Z,20.65
2023-05-23T12:40:00.006Z,20.86
2023-05-23T12:41:00.034Z,20.98
2023-05-23T12:41:59.988Z,20.99
2023-05-23T12:42:59.994Z,21.27
2023-05-23T12:43:59.968Z,21.20
2023-05-23T12:44:59.946Z,21.09
2023-05-23T12:45:59.939Z,21.27
2023-05-23T12:46:59.959Z,21.54
2023-05-23T12:47:59.901Z,21.60
2023-05-23T12:48:59.878Z,21.60
2023-05-23T12:49:59.879Z,21.42
2023-05-23T12:50:59.871Z,21.59
2023-05-23T12:51:59.856Z,21.75
2023-05-23T12:52:59.851Z,21.71
2023-05-23T12:53:59.813Z,21.54